Time;durP1;ratioP1;P1;durP2;ratioP2;P2;SDS_P1;SDS_P2;PMS_P1;PMS_P2;Temp;Humidity;BMP_temperature;BMP_pressure;BME280_temperature;BME280_humidity;BME280_pressure;Samples;Min_cycle;Max_cycle;Signal;HPM_P1;HPM_P2
2021/06/01 00:02:18;;;;;;;4.50;2.63;;;22.30;34.40;;;;;;8318660;28;20046;-46
2021/06/01 00:06:18;;;;;;;2.83;2.10;;;22.30;34.30;;;;;;8298266;28;20116;-46
2021/06/01 00:10:19;;;;;;;3.40;2.50;;;22.30;34.40;;;;;;8294723;28;20049;-46
2021/06/01 00:14:20;;;;;;;3.40;2.40;;;22.30;34.40;;;;;;8312037;28;20069;-46
2021/06/01 00:18:20;;;;;;;2.90;2.00;;;22.30;34.40;;;;;;8326201;28;20495;-45
2021/06/01 00:22:21;;;;;;;3.37;2.17;;;22.30;34.50;;;;;;8327199;28;20288;-46
2021/06/01 00:26:22;;;;;;;3.57;2.43;;;22.20;34.40;;;;;;8327633;28;20037;-46
2021/06/01 00:30:22;;;;;;;4.72;2.42;;;22.20;34.40;;;;;;8326072;28;20128;-47
2021/06/01 00:34:23;;;;;;;3.40;2.28;;;22.20;34.40;;;;;;8311839;28;20037;-46
2021/06/01 00:38:24;;;;;;;2.50;2.10;;;22.20;34.40;;;;;;8291886;28;20116;-46
2021/06/01 00:42:24;;;;;;;3.63;2.30;;;22.20;34.50;;;;;;8297514;28;20128;-46
2021/06/01 00:46:25;;;;;;;4.10;2.50;;;22.20;34.50;;;;;;8319591;28;20264;-45
2021/06/01 00:50:27;;;;;;;2.93;2.43;;;22.20;34.50;;;;;;8307132;28;20037;-46
2021/06/01 00:54:27;;;;;;;2.85;2.17;;;22.10;34.50;;;;;;8300692;28;20386;-46
2021/06/01 00:58:28;;;;;;;3.87;2.77;;;22.20;34.50;;;;;;8329725;28;20026;-46
2021/06/01 01:02:29;;;;;;;2.93;2.27;;;22.10;34.50;;;;;;8323601;28;20041;-45
2021/06/01 01:06:44;;;;;;;2.72;2.10;;;22.10;34.50;;;;;;8304669;28;20038;-47
2021/06/01 01:10:46;;;;;;;3.45;2.25;;;22.10;34.50;;;;;;8291578;28;20029;-46
2021/06/01 01:14:52;;;;;;;3.38;2.63;;;22.10;34.50;;;;;;8293120;28;20037;-46
2021/06/01 01:18:58;;;;;;;3.15;2.58;;;22.10;34.50;;;;;;8296672;28;20038;-47
2021/06/01 01:23:02;;;;;;;3.05;2.38;;;22.10;34.50;;;;;;8318698;28;20042;-46
2021/06/01 01:27:37;;;;;;;3.58;2.33;;;22.10;34.60;;;;;;8306432;28;20109;-45
2021/06/01 01:31:45;;;;;;;2.58;2.25;;;22.00;34.50;;;;;;8292638;28;20042;-46
2021/06/01 01:35:51;;;;;;;3.30;2.20;;;22.00;34.60;;;;;;8296083;28;20029;-46
2021/06/01 01:39:57;;;;;;;3.33;2.40;;;22.00;34.50;;;;;;8329044;28;20095;-46
2021/06/01 01:44:00;;;;;;;3.15;2.22;;;22.00;34.60;;;;;;8322150;28;20486;-47
2021/06/01 01:52:29;;;;;;;3.05;2.45;;;22.00;34.60;;;;;;8306174;28;20051;-46
2021/06/01 01:56:36;;;;;;;3.28;2.40;;;22.00;34.60;;;;;;8319964;28;20117;-46
2021/06/01 02:00:37;;;;;;;3.47;2.33;;;21.90;34.60;;;;;;8302505;28;20046;-46
2021/06/01 02:04:38;;;;;;;2.75;2.38;;;22.00;34.60;;;;;;8298697;28;20037;-46
2021/06/01 02:08:41;;;;;;;3.10;2.40;;;21.90;34.60;;;;;;8297531;28;20034;-45
2021/06/01 02:12:41;;;;;;;2.95;2.45;;;21.90;34.60;;;;;;8298387;28;20064;-46
2021/06/01 02:16:42;;;;;;;3.13;2.23;;;21.90;34.60;;;;;;8300113;28;20041;-47
2021/06/01 02:20:45;;;;;;;4.05;2.60;;;21.90;34.60;;;;;;8298601;28;20037;-46
2021/06/01 02:24:54;;;;;;;2.92;2.60;;;21.90;34.60;;;;;;8297958;28;20677;-46
2021/06/01 02:29:01;;;;;;;4.53;2.58;;;21.90;34.80;;;;;;8309455;28;20517;-45
2021/06/01 02:33:04;;;;;;;2.72;2.42;;;21.90;34.70;;;;;;8329466;28;20045;-46
2021/06/01 02:37:07;;;;;;;3.63;2.60;;;21.90;34.70;;;;;;8333891;28;20057;-45
2021/06/01 02:41:09;;;;;;;3.85;2.40;;;21.80;34.70;;;;;;8327595;28;20083;-46
2021/06/01 02:45:12;;;;;;;2.60;2.40;;;21.80;34.70;;;;;;8310235;28;20042;-47
2021/06/01 02:49:15;;;;;;;4.90;2.55;;;21.80;34.70;;;;;;8297089;28;20041;-47
2021/06/01 02:53:17;;;;;;;2.92;2.15;;;21.80;34.70;;;;;;8295840;28;20049;-46
2021/06/01 02:57:20;;;;;;;;;;;21.80;34.70;;;;;;8333814;28;20034;-45
2021/06/01 03:01:21;;;;;;;5.00;2.95;;;21.80;34.70;;;;;;8304096;28;20333;-46
2021/06/01 03:05:28;;;;;;;;;;;21.70;34.70;;;;;;8295570;28;20038;-45
2021/06/01 03:09:29;;;;;;;3.60;2.53;;;21.70;34.70;;;;;;8301501;28;20461;-46
2021/06/01 03:13:30;;;;;;;3.43;2.40;;;21.70;34.70;;;;;;8332850;28;20038;-45
2021/06/01 03:17:31;;;;;;;3.00;2.47;;;21.70;34.70;;;;;;8325916;28;20494;-45
2021/06/01 03:21:33;;;;;;;4.47;2.50;;;21.70;34.80;;;;;;8309122;28;20073;-46
2021/06/01 03:25:34;;;;;;;3.78;2.50;;;21.70;34.90;;;;;;8296093;28;20312;-46
2021/06/01 03:29:34;;;;;;;5.28;2.40;;;21.70;34.80;;;;;;8295220;28;20573;-46
2021/06/01 03:33:35;;;;;;;4.43;3.17;;;21.70;34.80;;;;;;8298685;28;20087;-46
2021/06/01 03:37:36;;;;;;;4.45;3.10;;;21.70;34.80;;;;;;8318354;28;20030;-47
2021/06/01 03:41:37;;;;;;;4.00;2.43;;;21.70;34.80;;;;;;8312159;28;20128;-46
2021/06/01 03:45:37;;;;;;;6.90;3.10;;;21.70;34.80;;;;;;8277697;28;20030;-45
2021/06/01 03:49:38;;;;;;;3.47;2.63;;;21.70;34.80;;;;;;8298974;28;20128;-46
2021/06/01 03:53:39;;;;;;;3.88;2.50;;;21.70;34.80;;;;;;8320009;28;20788;-45
2021/06/01 03:57:40;;;;;;;3.37;2.80;;;21.70;34.80;;;;;;8327089;28;20474;-44
2021/06/01 04:01:40;;;;;;;3.97;2.53;;;21.60;34.80;;;;;;8326121;28;20041;-45
2021/06/01 04:05:41;;;;;;;4.80;3.00;;;21.70;34.80;;;;;;8329194;28;20036;-45
2021/06/01 04:09:41;;;;;;;5.73;2.63;;;21.70;34.80;;;;;;8296735;28;20173;-45
2021/06/01 04:13:42;;;;;;;4.37;2.43;;;21.70;34.70;;;;;;8292868;28;20042;-44
2021/06/01 04:17:43;;;;;;;4.73;2.63;;;21.60;34.70;;;;;;8293550;28;20096;-45
2021/06/01 04:21:43;;;;;;;3.97;2.35;;;21.70;34.80;;;;;;8292684;28;20097;-46
2021/06/01 04:25:44;;;;;;;4.57;2.40;;;21.70;34.80;;;;;;8295826;28;20049;-46
2021/06/01 04:29:44;;;;;;;4.03;3.00;;;21.60;34.70;;;;;;8317216;28;20530;-45
2021/06/01 04:33:45;;;;;;;2.73;2.43;;;21.60;34.70;;;;;;8311595;28;20041;-47
2021/06/01 04:37:45;;;;;;;4.13;2.40;;;21.60;34.70;;;;;;8295933;28;20095;-46
2021/06/01 04:41:46;;;;;;;2.93;2.20;;;21.60;34.70;;;;;;8330284;28;20053;-46
2021/06/01 04:45:46;;;;;;;2.87;2.20;;;21.60;34.70;;;;;;8325578;28;20044;-46
2021/06/01 04:49:48;;;;;;;4.30;2.53;;;21.60;34.80;;;;;;8323544;28;20391;-45
2021/06/01 04:53:54;;;;;;;3.88;2.83;;;21.60;34.80;;;;;;8325260;28;20040;-45
2021/06/01 04:57:56;;;;;;;3.35;2.47;;;21.60;34.80;;;;;;8329468;28;20025;-46
2021/06/01 05:01:56;;;;;;;;;;;21.60;34.80;;;;;;8324707;28;20407;-46
2021/06/01 05:05:57;;;;;;;2.70;2.30;;;21.50;34.80;;;;;;8303155;28;19920;-45
2021/06/01 05:10:01;;;;;;;3.08;2.40;;;21.50;34.80;;;;;;8305671;28;20499;-45
2021/06/01 05:14:01;;;;;;;3.95;2.55;;;21.60;34.80;;;;;;8323522;28;20070;-47
2021/06/01 05:18:03;;;;;;;3.97;2.50;;;21.50;34.80;;;;;;8329562;28;20041;-46
2021/06/01 05:22:03;;;;;;;3.20;2.33;;;21.60;34.80;;;;;;8324153;28;20052;-46
2021/06/01 05:26:04;;;;;;;3.47;2.50;;;21.70;34.50;;;;;;8322578;28;20112;-46
2021/06/01 05:30:07;;;;;;;2.53;2.33;;;21.80;34.20;;;;;;8324873;28;20478;-45
2021/06/01 05:34:09;;;;;;;3.33;2.65;;;22.00;34.00;;;;;;8317367;28;20034;-45
2021/06/01 05:38:09;;;;;;;2.88;2.40;;;22.00;33.90;;;;;;8329620;28;20037;-45
2021/06/01 05:42:10;;;;;;;4.53;3.05;;;22.00;33.80;;;;;;8310048;28;20046;-45
2021/06/01 05:46:10;;;;;;;4.20;2.27;;;22.10;33.80;;;;;;8299358;28;20103;-45
2021/06/01 05:50:11;;;;;;;4.43;2.47;;;22.00;33.80;;;;;;8297416;28;20026;-45
2021/06/01 05:54:12;;;;;;;3.97;2.38;;;22.00;33.80;;;;;;8302935;28;20065;-45
2021/06/01 05:58:13;;;;;;;3.53;2.27;;;22.00;33.90;;;;;;8298779;28;20113;-44
2021/06/01 06:02:14;;;;;;;2.97;2.47;;;21.90;33.90;;;;;;8311035;28;20029;-44
2021/06/01 06:06:15;;;;;;;3.27;2.40;;;21.90;34.10;;;;;;8325748;28;20391;-45
2021/06/01 06:10:16;;;;;;;3.78;2.50;;;21.80;34.10;;;;;;8301528;28;20036;-45
2021/06/01 06:14:17;;;;;;;;;;;21.80;34.10;;;;;;8296164;28;20034;-45
2021/06/01 06:18:28;;;;;;;3.37;2.50;;;21.80;34.10;;;;;;8315916;28;20281;-45
2021/06/01 06:22:29;;;;;;;3.08;2.53;;;21.80;34.20;;;;;;8329639;28;20063;-45
2021/06/01 06:26:29;;;;;;;3.47;2.23;;;21.70;34.20;;;;;;8327870;28;20029;-44
2021/06/01 06:30:30;;;;;;;2.80;1.93;;;21.70;34.30;;;;;;8334124;28;20164;-46
2021/06/01 06:34:31;;;;;;;3.57;2.00;;;21.70;34.30;;;;;;8305481;28;20460;-46
2021/06/01 06:38:31;;;;;;;3.67;2.30;;;21.70;34.30;;;;;;8295179;28;20037;-45
2021/06/01 06:42:35;;;;;;;2.70;2.10;;;21.70;34.40;;;;;;8296724;28;20388;-46
2021/06/01 06:46:41;;;;;;;3.38;2.22;;;21.70;34.40;;;;;;8300647;28;20034;-47
2021/06/01 06:50:41;;;;;;;4.20;2.60;;;21.60;34.40;;;;;;8322830;28;20095;-47
2021/06/01 06:54:42;;;;;;;3.07;2.77;;;21.60;34.50;;;;;;8328307;28;20443;-46
2021/06/01 06:58:43;;;;;;;2.37;2.07;;;21.60;34.50;;;;;;8318794;28;20045;-46
2021/06/01 07:02:44;;;;;;;2.58;2.20;;;21.60;34.50;;;;;;8300427;28;20413;-46
2021/06/01 07:06:48;;;;;;;2.38;2.00;;;21.60;34.50;;;;;;8296628;28;20449;-47
2021/06/01 07:10:48;;;;;;;3.85;2.80;;;21.60;34.60;;;;;;8294039;28;20038;-46
2021/06/01 07:14:56;;;;;;;2.50;2.00;;;21.60;34.60;;;;;;8309413;28;20076;-46
2021/06/01 07:18:57;;;;;;;2.38;2.03;;;21.60;34.60;;;;;;8328450;28;20498;-46
2021/06/01 07:22:59;;;;;;;3.03;2.40;;;21.60;34.60;;;;;;8330909;28;20069;-47
2021/06/01 07:27:01;;;;;;;2.28;1.83;;;21.60;34.60;;;;;;8327796;28;20077;-46
2021/06/01 07:31:04;;;;;;;2.80;2.40;;;21.60;34.70;;;;;;8310067;28;20417;-46
2021/06/01 07:35:05;;;;;;;2.55;2.08;;;21.60;34.60;;;;;;8293991;28;20088;-45
2021/06/01 07:39:05;;;;;;;3.20;2.10;;;21.60;34.70;;;;;;8299354;28;20041;-47
2021/06/01 07:43:06;;;;;;;2.65;2.17;;;21.60;34.70;;;;;;8326978;28;20409;-46
2021/06/01 07:47:06;;;;;;;2.10;1.87;;;21.60;34.70;;;;;;8303978;28;20034;-48
2021/06/01 07:51:11;;;;;;;2.77;2.23;;;21.60;34.70;;;;;;8307175;28;20061;-46
2021/06/01 07:55:11;;;;;;;3.00;2.03;;;21.60;34.70;;;;;;8323230;28;20128;-47
2021/06/01 07:59:12;;;;;;;2.30;2.10;;;21.60;34.70;;;;;;8297070;28;20041;-45
2021/06/01 08:03:17;;;;;;;4.13;2.50;;;21.60;34.70;;;;;;8320826;28;20356;-45
2021/06/01 08:07:18;;;;;;;2.55;2.00;;;21.70;34.70;;;;;;8309951;28;20038;-46
2021/06/01 08:11:19;;;;;;;;;;;21.70;34.70;;;;;;8293629;28;20048;-45
2021/06/01 08:15:21;;;;;;;2.30;1.93;;;21.70;34.70;;;;;;8298131;28;20287;-46
2021/06/01 08:19:29;;;;;;;2.22;2.03;;;21.70;34.80;;;;;;8323961;28;20618;-46
2021/06/01 08:23:29;;;;;;;3.15;2.03;;;21.70;34.80;;;;;;8302744;28;20092;-46
2021/06/01 08:27:30;;;;;;;2.80;2.17;;;21.70;34.80;;;;;;8305499;28;20030;-46
2021/06/01 08:31:31;;;;;;;2.22;1.80;;;21.70;34.80;;;;;;8323825;28;22364;-46
2021/06/01 08:35:32;;;;;;;1.30;1.20;;;21.70;34.80;;;;;;8296046;28;20109;-46
2021/06/01 08:39:32;;;;;;;2.55;2.10;;;21.80;34.90;;;;;;8294338;28;20053;-45
2021/06/01 08:43:33;;;;;;;2.00;1.80;;;21.80;34.90;;;;;;8308261;28;20135;-46
2021/06/01 08:47:34;;;;;;;2.87;2.33;;;21.80;34.90;;;;;;8318344;28;20117;-47
2021/06/01 08:51:35;;;;;;;2.55;2.05;;;21.90;34.90;;;;;;8297179;28;20273;-46
2021/06/01 08:55:35;;;;;;;2.43;2.17;;;21.90;34.90;;;;;;8293402;28;20061;-46
2021/06/01 08:59:36;;;;;;;2.37;2.17;;;21.90;34.80;;;;;;8310730;28;20037;-46
2021/06/01 09:03:44;;;;;;;2.00;1.90;;;21.90;34.80;;;;;;8315344;28;20061;-47
2021/06/01 09:24:20;;;;;;;2.78;2.10;;;22.00;34.80;;;;;;8293295;28;20046;-46
2021/06/01 09:28:20;;;;;;;2.43;2.00;;;22.10;34.90;;;;;;8296660;28;20038;-46
2021/06/01 09:32:22;;;;;;;2.27;2.07;;;22.10;34.90;;;;;;8291379;28;20037;-46
2021/06/01 09:36:23;;;;;;;3.08;2.00;;;22.10;34.90;;;;;;8314150;28;20125;-47
2021/06/01 09:40:24;;;;;;;1.83;1.60;;;22.10;34.90;;;;;;8324625;28;20038;-46
2021/06/01 09:44:24;;;;;;;2.50;1.73;;;22.10;34.80;;;;;;8322849;28;20448;-46
2021/06/01 09:48:26;;;;;;;2.23;2.00;;;22.10;34.90;;;;;;8329144;28;20033;-46
2021/06/01 09:52:26;;;;;;;2.58;2.10;;;22.20;34.90;;;;;;8298045;28;20057;-46
2021/06/01 09:56:31;;;;;;;2.53;2.07;;;22.20;34.90;;;;;;8306505;28;20482;-47
2021/06/01 10:00:33;;;;;;;2.53;2.00;;;22.20;34.90;;;;;;8316480;28;20050;-46
2021/06/01 10:04:34;;;;;;;2.53;1.88;;;22.30;34.90;;;;;;8296031;28;20505;-45
2021/06/01 10:08:48;;;;;;;2.97;2.20;;;22.30;34.80;;;;;;8290861;28;20041;-46
2021/06/01 10:12:52;;;;;;;2.63;2.42;;;22.30;34.90;;;;;;8291928;28;20573;-47
2021/06/01 10:16:53;;;;;;;2.40;2.08;;;22.30;34.80;;;;;;8304035;28;20044;-47
2021/06/01 10:20:54;;;;;;;2.35;1.77;;;22.30;34.80;;;;;;8329978;28;20124;-46
2021/06/01 10:24:55;;;;;;;2.30;2.08;;;22.40;34.80;;;;;;8334686;28;20063;-46
2021/06/01 10:28:56;;;;;;;2.42;2.00;;;22.40;34.80;;;;;;8327491;28;20069;-46
2021/06/01 10:33:00;;;;;;;2.33;1.98;;;22.40;34.80;;;;;;8329611;28;20414;-45
2021/06/01 10:50:23;;;;;;;3.08;1.77;;;22.50;34.90;;;;;;8296412;28;20056;-47
2021/06/01 10:54:43;;;;;;;2.47;2.10;;;22.50;34.80;;;;;;8319017;28;20079;-47
2021/06/01 10:58:46;;;;;;;2.88;2.30;;;22.50;34.80;;;;;;8327401;28;20397;-47
2021/06/01 11:03:04;;;;;;;3.03;2.05;;;22.60;34.80;;;;;;8327812;28;20045;-49
2021/06/01 11:11:31;;;;;;;2.35;2.13;;;22.60;34.80;;;;;;8295559;28;20041;-46
2021/06/01 11:15:34;;;;;;;2.53;2.10;;;22.70;34.80;;;;;;8321003;28;20038;-47
2021/06/01 11:20:06;;;;;;;2.67;1.85;;;22.70;34.80;;;;;;8327959;28;20030;-48
2021/06/01 11:36:54;;;;;;;;;;;22.80;34.70;;;;;;8325218;28;20044;-46
2021/06/01 11:45:18;;;;;;;3.90;2.70;;;22.80;34.70;;;;;;8326684;28;20401;-46
2021/06/01 11:54:01;;;;;;;3.78;2.67;;;22.90;34.70;;;;;;8329793;28;20086;-47
2021/06/01 12:19:42;;;;;;;5.28;3.40;;;23.00;34.60;;;;;;8296769;28;20033;-47
2021/06/01 12:23:47;;;;;;;4.82;3.30;;;23.00;34.60;;;;;;8294104;28;20081;-45
2021/06/01 12:28:00;;;;;;;4.97;3.38;;;23.10;34.70;;;;;;8294035;28;20042;-47
2021/06/01 12:32:13;;;;;;;5.10;3.42;;;23.00;34.60;;;;;;8303725;28;20033;-47
2021/06/01 12:37:08;;;;;;;6.43;3.72;;;23.10;34.60;;;;;;8325538;28;20040;-46
2021/06/01 13:49:03;;;;;;;5.93;3.67;;;23.40;34.40;;;;;;8321606;28;20080;-47
2021/06/01 13:55:07;;;;;;;5.45;3.40;;;23.40;34.40;;;;;;8297190;28;20099;-47
2021/06/01 13:58:02;;;;;;;4.93;3.20;;;23.40;34.30;;;;;;8328911;28;20075;-46
2021/06/01 14:02:40;;;;;;;4.82;3.25;;;23.40;34.40;;;;;;8303394;28;20053;-50
2021/06/01 14:11:26;;;;;;;4.80;3.15;;;23.50;34.40;;;;;;8296359;28;20084;-48
2021/06/01 14:37:19;;;;;;;4.80;2.77;;;23.60;34.40;;;;;;8298473;28;20080;-51
2021/06/01 15:29:17;;;;;;;5.28;3.22;;;23.70;34.30;;;;;;8325924;28;20087;-46
2021/06/01 16:12:29;;;;;;;5.53;2.85;;;23.70;34.10;;;;;;8295116;28;20125;-46
2021/06/01 16:41:40;;;;;;;4.05;2.83;;;23.70;34.10;;;;;;8326210;28;20037;-46
2021/06/01 16:43:03;;;;;;;4.10;2.50;;;23.70;33.90;;;;;;8305930;28;20049;-47
2021/06/01 17:09:05;;;;;;;3.53;2.60;;;23.70;33.60;;;;;;8323168;28;20046;-47
2021/06/01 17:13:08;;;;;;;3.95;2.50;;;23.70;33.70;;;;;;8311048;28;20387;-46
2021/06/01 17:17:11;;;;;;;4.10;2.60;;;23.70;33.90;;;;;;8290918;28;20026;-47
2021/06/01 17:21:44;;;;;;;4.25;2.80;;;23.70;33.60;;;;;;8296490;28;20514;-47
2021/06/01 17:38:36;;;;;;;4.57;2.90;;;23.70;33.40;;;;;;8307789;28;20486;-47
2021/06/01 17:42:43;;;;;;;3.40;2.60;;;23.70;33.40;;;;;;8330796;28;20045;-47
2021/06/01 17:46:44;;;;;;;3.63;2.53;;;23.60;33.70;;;;;;8333600;28;20276;-46
2021/06/01 17:50:45;;;;;;;3.45;2.53;;;23.60;33.50;;;;;;8306908;28;20104;-46
2021/06/01 17:54:51;;;;;;;3.80;2.63;;;23.70;33.50;;;;;;8313730;28;20056;-46
2021/06/01 17:58:53;;;;;;;3.40;2.75;;;23.60;33.60;;;;;;8329037;28;20148;-46
2021/06/01 18:02:54;;;;;;;4.75;2.63;;;23.70;33.20;;;;;;8335200;28;20143;-48
2021/06/01 19:28:41;;;;;;;3.13;2.50;;;23.50;33.50;;;;;;8316221;28;20080;-46
2021/06/01 19:50:29;;;;;;;3.53;2.70;;;23.50;34.10;;;;;;8317625;28;20052;-50
2021/06/01 19:54:31;;;;;;;3.30;2.38;;;23.50;34.10;;;;;;8327014;28;20037;-46
2021/06/01 19:58:36;;;;;;;4.53;2.28;;;23.50;33.70;;;;;;8326899;28;20555;-47
2021/06/01 20:02:37;;;;;;;4.30;2.20;;;23.50;33.80;;;;;;8329664;28;20124;-45
2021/06/01 20:06:39;;;;;;;3.28;2.30;;;23.50;34.00;;;;;;8325752;28;20037;-46
2021/06/01 20:10:39;;;;;;;;;;;23.50;33.90;;;;;;8327031;28;20025;-46
2021/06/01 20:14:40;;;;;;;3.57;2.47;;;23.40;33.80;;;;;;8314580;28;19924;-47
2021/06/01 20:18:42;;;;;;;3.25;2.78;;;23.50;33.80;;;;;;8294743;28;20033;-47
2021/06/01 20:22:49;;;;;;;3.95;2.60;;;23.40;34.00;;;;;;8296435;28;20045;-47
2021/06/01 20:26:49;;;;;;;3.35;2.30;;;23.50;34.20;;;;;;8319128;28;20460;-46
2021/06/01 20:30:54;;;;;;;3.67;2.43;;;23.40;34.20;;;;;;8311492;28;20057;-46
2021/06/01 20:34:56;;;;;;;2.88;2.20;;;23.40;34.10;;;;;;8291847;28;20057;-46
2021/06/01 20:39:01;;;;;;;3.35;2.53;;;23.40;34.10;;;;;;8297714;28;20114;-47
2021/06/01 20:43:03;;;;;;;3.53;2.60;;;23.40;34.10;;;;;;8322898;28;20049;-47
2021/06/01 20:47:06;;;;;;;3.35;2.42;;;23.40;34.20;;;;;;8324012;28;20037;-46
2021/06/01 20:51:06;;;;;;;3.20;2.33;;;23.40;34.20;;;;;;8325146;28;20037;-46
2021/06/01 20:55:09;;;;;;;3.45;2.58;;;23.40;34.20;;;;;;8323482;28;20124;-46
2021/06/01 20:59:12;;;;;;;4.75;2.30;;;23.40;34.30;;;;;;8295637;28;20061;-46
2021/06/01 21:03:20;;;;;;;3.33;2.40;;;23.40;34.30;;;;;;8317474;28;20119;-46
2021/06/01 21:07:21;;;;;;;2.65;2.13;;;23.40;34.30;;;;;;8309576;28;20030;-45
2021/06/01 21:11:23;;;;;;;2.87;2.30;;;23.40;34.30;;;;;;8296985;28;20072;-47
2021/06/01 21:15:25;;;;;;;2.90;2.20;;;23.40;34.30;;;;;;8329497;28;20108;-46
2021/06/01 21:19:25;;;;;;;3.22;2.67;;;23.40;34.30;;;;;;8324803;28;20504;-46
2021/06/01 21:23:27;;;;;;;2.97;2.50;;;23.40;34.30;;;;;;8322786;28;20037;-46
2021/06/01 21:27:28;;;;;;;3.00;2.70;;;23.40;34.40;;;;;;8325014;28;20030;-47
2021/06/01 21:31:39;;;;;;;3.67;2.50;;;23.30;34.20;;;;;;8324938;28;20069;-46
2021/06/01 21:35:42;;;;;;;3.55;2.22;;;23.40;34.30;;;;;;8327662;28;20037;-46
2021/06/01 21:39:45;;;;;;;3.35;2.40;;;23.40;34.30;;;;;;8324676;28;20037;-47
2021/06/01 21:43:48;;;;;;;2.45;2.10;;;23.30;34.20;;;;;;8322357;28;20450;-46
2021/06/01 21:47:52;;;;;;;3.40;2.50;;;23.30;34.30;;;;;;8317322;28;20033;-48
2021/06/01 21:51:55;;;;;;;3.03;2.50;;;23.30;34.30;;;;;;8296434;28;20038;-47
2021/06/01 21:55:56;;;;;;;3.63;2.50;;;23.30;34.30;;;;;;8321286;28;20533;-47
2021/06/01 21:59:57;;;;;;;3.13;2.50;;;23.30;34.30;;;;;;8324430;28;20041;-46
2021/06/01 22:03:59;;;;;;;2.72;2.08;;;23.30;34.30;;;;;;8312193;28;20088;-47
2021/06/01 22:08:01;;;;;;;3.72;2.75;;;23.30;34.30;;;;;;8289959;28;20424;-47
2021/06/01 22:12:05;;;;;;;3.08;2.38;;;23.30;34.30;;;;;;8296348;28;20061;-46
2021/06/01 22:16:10;;;;;;;2.70;2.20;;;23.30;34.30;;;;;;8323134;28;20084;-47
2021/06/01 22:20:11;;;;;;;2.58;2.05;;;23.30;34.30;;;;;;8328395;28;20068;-46
2021/06/01 22:24:12;;;;;;;3.40;2.80;;;23.30;34.30;;;;;;8329977;28;20041;-47
2021/06/01 22:28:13;;;;;;;4.07;2.45;;;23.30;34.40;;;;;;8334537;28;20040;-47
2021/06/01 22:32:14;;;;;;;2.45;2.25;;;23.30;34.30;;;;;;8328020;28;20079;-47
2021/06/01 22:36:20;;;;;;;2.63;2.00;;;23.30;34.40;;;;;;8329790;28;20395;-46
2021/06/01 22:40:22;;;;;;;2.72;2.10;;;23.20;34.40;;;;;;8318120;28;20473;-48
2021/06/01 22:44:27;;;;;;;3.08;2.30;;;23.20;34.40;;;;;;8296994;28;20068;-47
2021/06/01 22:48:28;;;;;;;3.13;2.28;;;23.20;34.40;;;;;;8333846;28;20485;-46
2021/06/01 22:52:28;;;;;;;2.47;2.23;;;23.20;34.40;;;;;;8304085;28;20084;-47
2021/06/01 22:56:29;;;;;;;3.28;2.22;;;23.20;34.50;;;;;;8310767;28;20036;-47
2021/06/01 23:00:32;;;;;;;3.13;2.63;;;23.20;34.50;;;;;;8328027;28;20041;-46
2021/06/01 23:04:34;;;;;;;3.70;2.50;;;23.20;34.40;;;;;;8333337;28;20065;-46
2021/06/01 23:08:34;;;;;;;3.22;2.55;;;23.20;34.50;;;;;;8298212;28;20036;-46
2021/06/01 23:12:37;;;;;;;3.43;2.20;;;23.20;34.50;;;;;;8297158;28;20038;-47
2021/06/01 23:16:40;;;;;;;3.55;2.55;;;23.10;34.50;;;;;;8306058;28;20128;-47
2021/06/01 23:20:41;;;;;;;2.83;1.92;;;23.10;34.50;;;;;;8326464;28;20034;-47
2021/06/01 23:24:42;;;;;;;3.58;2.25;;;23.10;34.50;;;;;;8332321;28;20398;-46
2021/06/01 23:28:43;;;;;;;2.35;2.00;;;23.10;34.50;;;;;;8303103;28;20030;-46
2021/06/01 23:32:44;;;;;;;2.33;2.13;;;23.10;34.50;;;;;;8310552;28;20423;-46
2021/06/01 23:36:55;;;;;;;3.17;2.30;;;23.10;34.50;;;;;;8323983;28;20037;-46
2021/06/01 23:40:58;;;;;;;3.80;2.20;;;23.10;34.50;;;;;;8297673;28;20054;-46
2021/06/01 23:44:58;;;;;;;2.65;2.35;;;23.10;34.50;;;;;;8295053;28;20117;-46
2021/06/01 23:53:18;;;;;;;2.67;2.13;;;23.00;34.60;;;;;;8293278;28;20137;-46
2021/06/01 23:57:19;;;;;;;2.23;2.03;;;23.00;34.60;;;;;;8294750;28;20038;-47
